Time;durP1;ratioP1;P1;durP2;ratioP2;P2;SDS_P1;SDS_P2;PMS_P1;PMS_P2;Temp;Humidity;BMP_temperature;BMP_pressure;BME280_temperature;BME280_humidity;BME280_pressure;Samples;Min_cycle;Max_cycle;Signal;HPM_P1;HPM_P2
2022/10/09 00:01:30;;;;;;;5.68;4.10;;;;;;;18.94;61.16;101649.69;5050716;28;20402;-80
2022/10/09 00:03:56;;;;;;;6.07;4.30;;;;;;;18.90;61.83;101632.78;5051476;28;20084;-81
2022/10/09 00:06:28;;;;;;;5.22;3.90;;;;;;;18.95;61.33;101643.56;5057198;28;20037;-79
2022/10/09 00:08:54;;;;;;;5.03;4.38;;;;;;;18.89;61.38;101639.84;5034637;28;20045;-81
2022/10/09 00:11:25;;;;;;;5.15;4.10;;;;;;;18.97;60.89;101644.53;5036733;28;20038;-80
2022/10/09 00:13:52;;;;;;;4.68;3.78;;;;;;;18.91;60.92;101647.84;5052465;28;20035;-80
2022/10/09 00:16:18;;;;;;;4.40;3.78;;;;;;;18.91;61.03;101631.97;5052427;28;20032;-79
2022/10/09 00:18:44;;;;;;;6.03;3.95;;;;;;;18.83;61.34;101642.28;5054433;28;20494;-80
2022/10/09 00:21:23;;;;;;;6.60;4.43;;;;;;;18.87;61.26;101640.66;5039469;28;20052;-80
2022/10/09 00:23:51;;;;;;;5.97;4.20;;;;;;;18.90;61.20;101635.44;5041344;28;20029;-80
2022/10/09 00:26:17;;;;;;;6.40;4.20;;;;;;;18.86;61.27;101631.81;5053179;28;20032;-80
2022/10/09 00:28:43;;;;;;;;;;;;;;;18.92;60.96;101625.81;5053055;28;20020;-80
2022/10/09 00:31:10;;;;;;;5.45;3.95;;;;;;;18.87;61.24;101620.38;5053835;28;19912;-80
2022/10/09 00:33:36;;;;;;;6.00;4.47;;;;;;;18.83;60.90;101628.16;5044298;28;20029;-80
2022/10/09 00:36:08;;;;;;;4.88;3.85;;;;;;;18.84;60.34;101622.91;5037548;28;20072;-79
2022/10/09 00:38:34;;;;;;;5.43;3.95;;;;;;;18.90;60.22;101619.56;5020135;28;20036;-80
2022/10/09 00:40:59;;;;;;;4.82;4.05;;;;;;;18.81;60.79;101619.25;5046869;28;20033;-80
2022/10/09 00:43:41;;;;;;;4.88;3.90;;;;;;;18.84;60.79;101622.03;5040191;28;20494;-79
2022/10/09 00:46:34;;;;;;;7.55;3.65;;;;;;;18.76;60.58;101605.84;5036188;28;20029;-80
2022/10/09 00:49:13;;;;;;;5.53;4.10;;;;;;;18.83;60.89;101620.22;5032944;28;20112;-80
2022/10/09 00:51:40;;;;;;;5.90;4.15;;;;;;;18.82;60.94;101621.97;5037060;28;20052;-80
2022/10/09 00:54:08;;;;;;;5.30;3.83;;;;;;;18.73;60.28;101603.09;5059085;28;20025;-80
2022/10/09 00:56:34;;;;;;;4.05;3.65;;;;;;;18.61;60.68;101598.28;5053528;28;20409;-80
2022/10/09 00:59:00;;;;;;;7.28;4.00;;;;;;;18.79;60.55;101616.56;5052364;28;20020;-80
2022/10/09 01:01:25;;;;;;;5.38;3.88;;;;;;;18.74;61.14;101610.19;5051789;28;20078;-81
2022/10/09 01:03:51;;;;;;;5.25;4.20;;;;;;;18.69;61.12;101609.16;5060447;28;20025;-80
2022/10/09 01:06:18;;;;;;;5.13;3.40;;;;;;;18.83;60.99;101617.56;5049202;28;20034;-80
2022/10/09 01:09:02;;;;;;;4.20;3.75;;;;;;;18.65;61.20;101612.53;5041857;28;20372;-80
2022/10/09 01:11:52;;;;;;;5.30;3.38;;;;;;;18.74;60.47;101609.28;5035971;28;20115;-80
2022/10/09 01:14:27;;;;;;;4.75;3.70;;;;;;;18.75;61.14;101613.72;5047466;28;20029;-80
2022/10/09 01:17:19;;;;;;;5.00;3.80;;;;;;;18.81;61.07;101611.31;5048279;28;20051;-80
2022/10/09 01:20:00;;;;;;;4.05;3.63;;;;;;;18.70;60.65;101611.81;5029147;28;20410;-79
2022/10/09 01:22:36;;;;;;;5.00;3.80;;;;;;;18.70;60.95;101613.56;5053315;28;20035;-80
2022/10/09 01:25:07;;;;;;;6.05;3.70;;;;;;;18.70;60.81;101611.81;5041803;28;20033;-80
2022/10/09 01:27:35;;;;;;;4.53;3.10;;;;;;;18.72;60.36;101601.31;5044418;28;20055;-80
2022/10/09 01:30:06;;;;;;;4.65;3.60;;;;;;;18.73;59.85;101603.09;5037542;28;20103;-80
2022/10/09 01:32:35;;;;;;;3.58;3.28;;;;;;;18.72;59.98;101604.84;5048072;28;20524;-80
2022/10/09 01:35:01;;;;;;;5.05;4.00;;;;;;;18.60;60.66;101599.13;5054733;28;20044;-79
2022/10/09 01:37:28;;;;;;;5.15;3.53;;;;;;;18.77;60.47;101609.38;5051421;28;20575;-78
2022/10/09 01:39:54;;;;;;;5.07;3.60;;;;;;;18.68;60.11;101609.97;5060608;28;20116;-78
2022/10/09 01:42:21;;;;;;;4.95;3.50;;;;;;;18.69;60.33;101612.69;5057918;28;20566;-81
2022/10/09 01:44:47;;;;;;;4.72;4.10;;;;;;;18.63;60.75;101609.81;5043270;28;20099;-81
2022/10/09 01:47:15;;;;;;;4.70;3.58;;;;;;;18.78;60.22;101604.19;5051830;28;20025;-80
2022/10/09 01:49:43;;;;;;;7.10;3.78;;;;;;;18.74;60.07;101609.28;5038187;28;20040;-80
2022/10/09 01:52:31;;;;;;;3.78;3.40;;;;;;;18.78;60.13;101603.25;5043095;28;20025;-78
2022/10/09 01:55:19;;;;;;;3.83;3.42;;;;;;;18.68;60.49;101602.03;5040990;28;20037;-79
2022/10/09 01:57:50;;;;;;;4.10;3.70;;;;;;;18.67;60.44;101602.91;5051437;28;20056;-79
2022/10/09 02:00:16;;;;;;;5.13;3.50;;;;;;;18.76;60.27;101599.66;5048603;28;20481;-80
2022/10/09 02:02:41;;;;;;;;;;;;;;;18.70;60.61;101603.88;5041473;28;20505;-79
2022/10/09 02:05:10;;;;;;;4.90;3.47;;;;;;;18.61;60.41;101595.66;5051836;28;19960;-79
2022/10/09 02:07:36;;;;;;;4.22;3.83;;;;;;;18.64;60.54;101601.03;5051093;28;20027;-81
2022/10/09 02:10:02;;;;;;;5.10;4.07;;;;;;;18.51;60.27;101580.28;5050232;28;20064;-78
2022/10/09 02:12:31;;;;;;;4.97;3.80;;;;;;;18.69;60.62;101596.81;5038281;28;20021;-80
2022/10/09 02:14:57;;;;;;;5.07;3.80;;;;;;;18.56;59.98;101593.66;5050766;28;20116;-79
2022/10/09 02:17:26;;;;;;;4.35;3.47;;;;;;;18.60;60.36;101596.47;5046142;28;20109;-80
2022/10/09 02:20:18;;;;;;;5.57;3.83;;;;;;;18.45;60.13;101557.16;5040726;28;20033;-79
2022/10/09 02:22:45;;;;;;;3.65;3.28;;;;;;;18.61;60.43;101590.34;5045549;28;20021;-79
2022/10/09 02:25:11;;;;;;;4.75;3.80;;;;;;;18.60;59.95;101595.56;5032419;28;20071;-80
2022/10/09 02:27:37;;;;;;;5.35;3.97;;;;;;;18.63;59.88;101593.06;5051425;28;20078;-80
2022/10/09 02:30:05;;;;;;;3.63;3.33;;;;;;;18.64;59.21;101602.78;5036636;28;20106;-80
2022/10/09 02:32:31;;;;;;;6.28;3.58;;;;;;;18.57;60.03;101604.31;5041088;28;20086;-80
2022/10/09 02:34:57;;;;;;;5.95;3.55;;;;;;;18.50;59.95;101611.16;5044297;28;20037;-80
2022/10/09 02:37:22;;;;;;;4.25;3.42;;;;;;;18.46;60.25;101600.41;5046892;28;20079;-79
2022/10/09 02:39:49;;;;;;;5.88;3.50;;;;;;;18.56;59.64;101617.47;5044782;28;20086;-80
2022/10/09 02:42:14;;;;;;;4.15;3.38;;;;;;;18.51;59.84;101618.22;5048404;28;20033;-79
2022/10/09 02:44:40;;;;;;;5.43;3.83;;;;;;;18.37;59.78;101595.69;5045306;28;20662;-79
2022/10/09 02:47:05;;;;;;;4.85;3.45;;;;;;;18.39;59.76;101596.63;5046876;28;20033;-79
2022/10/09 02:49:31;;;;;;;6.80;3.90;;;;;;;18.52;59.68;101622.69;5039758;28;20029;-79
2022/10/09 02:51:57;;;;;;;4.53;3.42;;;;;;;18.49;60.24;101617.25;5043714;28;20029;-80
2022/10/09 02:54:22;;;;;;;4.65;3.55;;;;;;;18.59;60.05;101631.72;5031607;28;20025;-79
2022/10/09 02:56:48;;;;;;;6.43;3.58;;;;;;;18.46;59.76;101626.84;5033560;28;20067;-79
2022/10/09 02:59:13;;;;;;;4.30;3.63;;;;;;;18.45;60.47;101627.69;5047938;28;20056;-80
2022/10/09 03:01:39;;;;;;;4.15;3.38;;;;;;;18.46;60.20;101632.16;5045318;28;20025;-80
2022/10/09 03:04:04;;;;;;;4.07;3.30;;;;;;;18.41;60.41;101641.63;5051891;28;20028;-80
2022/10/09 03:06:30;;;;;;;4.82;3.67;;;;;;;18.49;60.11;101637.53;5048353;28;20060;-80
2022/10/09 03:08:56;;;;;;;6.07;4.05;;;;;;;18.39;60.34;101632.75;5050757;28;20045;-80
2022/10/09 03:11:23;;;;;;;4.45;3.17;;;;;;;18.45;60.23;101632.97;5035908;28;20030;-80
2022/10/09 03:13:49;;;;;;;4.75;3.58;;;;;;;18.52;60.34;101640.31;5058353;28;20036;-80
2022/10/09 03:16:19;;;;;;;;;;;;;;;18.56;60.13;101638.63;5043789;28;20164;-80
2022/10/09 03:18:45;;;;;;;3.80;3.33;;;;;;;18.49;60.49;101638.44;5061264;28;19916;-80
2022/10/09 03:21:15;;;;;;;3.83;3.28;;;;;;;18.41;60.46;101641.63;5050817;28;20040;-81
2022/10/09 03:23:42;;;;;;;7.93;3.50;;;;;;;18.39;60.72;101643.34;5041790;28;20025;-80
2022/10/09 03:26:10;;;;;;;5.20;3.40;;;;;;;18.49;60.03;101645.47;5033943;28;20033;-79
2022/10/09 03:28:41;;;;;;;4.60;3.42;;;;;;;18.44;59.99;101641.78;5036649;28;20146;-80
2022/10/09 03:31:07;;;;;;;4.68;3.40;;;;;;;18.43;60.42;101653.19;5044585;28;20034;-80
2022/10/09 03:33:34;;;;;;;5.32;3.38;;;;;;;18.50;60.14;101652.56;5051110;28;20018;-80
2022/10/09 03:35:59;;;;;;;3.90;3.47;;;;;;;18.41;60.46;101649.56;5046606;28;20061;-80
2022/10/09 03:38:25;;;;;;;5.20;3.45;;;;;;;18.43;59.91;101639.94;5055433;28;20118;-80
2022/10/09 03:40:51;;;;;;;5.07;3.47;;;;;;;18.45;60.36;101659.41;5062402;28;20056;-80
2022/10/09 03:43:16;;;;;;;5.72;3.58;;;;;;;18.33;60.54;101653.69;5038536;28;20497;-79
2022/10/09 03:45:42;;;;;;;4.50;2.90;;;;;;;18.49;60.31;101653.41;5049321;28;20033;-80
2022/10/09 03:48:11;;;;;;;3.95;3.33;;;;;;;18.44;60.08;101660.28;5042344;28;20037;-79
2022/10/09 03:50:38;;;;;;;4.15;3.30;;;;;;;18.46;60.20;101656.84;5065358;28;20565;-79
2022/10/09 03:53:04;;;;;;;3.67;3.17;;;;;;;18.39;60.37;101653.91;5040138;28;20036;-79
2022/10/09 03:55:30;;;;;;;5.00;3.33;;;;;;;18.38;60.29;101668.88;5054929;28;20090;-79
2022/10/09 03:57:55;;;;;;;3.63;3.00;;;;;;;18.39;60.04;101652.16;5053611;28;20704;-79
2022/10/09 04:00:21;;;;;;;4.53;3.35;;;;;;;18.36;60.56;101659.09;5048148;28;20494;-79
2022/10/09 04:02:47;;;;;;;5.15;3.40;;;;;;;18.32;59.75;101655.44;5042205;28;20021;-79
2022/10/09 04:05:12;;;;;;;5.22;3.53;;;;;;;18.32;59.80;101660.72;5047640;28;20033;-79
2022/10/09 04:07:38;;;;;;;5.32;3.42;;;;;;;18.36;60.30;101656.47;5043405;28;20024;-80
2022/10/09 04:10:04;;;;;;;4.32;3.55;;;;;;;18.28;60.31;101648.22;5051890;28;20025;-79
2022/10/09 04:12:30;;;;;;;4.95;3.70;;;;;;;18.26;60.65;101652.56;5051919;28;20075;-80
2022/10/09 04:14:55;;;;;;;4.97;3.13;;;;;;;18.25;60.02;101646.38;5039313;28;20511;-79
2022/10/09 04:17:21;;;;;;;5.10;3.63;;;;;;;18.25;60.14;101656.06;5051655;28;20108;-79
2022/10/09 04:19:46;;;;;;;4.15;3.40;;;;;;;18.39;59.72;101640.69;5043421;28;20086;-78
2022/10/09 04:22:12;;;;;;;6.18;3.50;;;;;;;18.31;60.09;101656.28;5050038;28;20132;-79
2022/10/09 04:24:37;;;;;;;5.53;3.50;;;;;;;18.34;59.91;101663.44;5036264;28;20546;-79
2022/10/09 04:27:03;;;;;;;5.13;3.45;;;;;;;18.27;59.88;101662.31;5056063;28;20028;-79
2022/10/09 04:29:29;;;;;;;4.75;3.38;;;;;;;18.32;60.22;101663.38;5038709;28;20032;-79
2022/10/09 04:31:54;;;;;;;4.20;3.30;;;;;;;18.33;60.18;101669.56;5064279;28;20466;-80
2022/10/09 04:34:20;;;;;;;4.13;3.35;;;;;;;18.25;60.14;101662.25;5049433;28;20283;-79
2022/10/09 04:36:46;;;;;;;3.83;3.20;;;;;;;18.30;60.00;101673.00;5055050;28;20498;-79
2022/10/09 04:39:11;;;;;;;6.05;3.80;;;;;;;18.21;60.51;101678.84;5039935;28;20064;-79
2022/10/09 04:41:37;;;;;;;5.05;3.42;;;;;;;18.24;60.19;101670.13;5053066;28;20100;-79
2022/10/09 04:44:02;;;;;;;4.68;3.50;;;;;;;18.28;60.00;101667.63;5047768;28;20033;-79
2022/10/09 04:46:28;;;;;;;5.07;3.80;;;;;;;18.23;60.06;101674.50;5048602;28;20029;-79
2022/10/09 04:48:54;;;;;;;5.53;3.88;;;;;;;18.17;60.45;101669.00;5055371;28;20040;-79
2022/10/09 04:51:19;;;;;;;5.32;3.85;;;;;;;18.15;60.12;101661.84;5046262;28;20546;-79
2022/10/09 04:53:45;;;;;;;3.65;3.13;;;;;;;18.15;60.35;101677.72;5061226;28;20176;-80
2022/10/09 04:56:14;;;;;;;3.83;3.40;;;;;;;18.18;60.21;101686.66;5057982;28;20064;-79
2022/10/09 04:58:40;;;;;;;4.07;3.20;;;;;;;18.19;60.19;101680.53;5042191;28;20037;-79
2022/10/09 05:01:15;;;;;;;6.40;3.53;;;;;;;18.22;59.92;101674.44;5040313;28;20030;-80
2022/10/09 05:03:41;;;;;;;4.55;3.33;;;;;;;18.20;60.32;101678.78;5039910;28;20053;-80
2022/10/09 05:06:08;;;;;;;5.15;3.80;;;;;;;18.25;60.01;101680.75;5049250;28;20045;-80
2022/10/09 05:08:35;;;;;;;3.80;3.40;;;;;;;18.19;60.16;101683.16;5039006;28;20036;-79
2022/10/09 05:11:10;;;;;;;4.60;3.28;;;;;;;18.10;60.25;101686.38;5041741;28;20106;-80
2022/10/09 05:13:39;;;;;;;5.10;3.55;;;;;;;18.07;60.39;101682.69;5049905;28;20451;-79
2022/10/09 05:16:07;;;;;;;4.60;3.10;;;;;;;18.28;59.89;101699.38;5049372;28;20096;-80
2022/10/09 05:18:32;;;;;;;5.57;3.83;;;;;;;18.11;60.32;101690.78;5045763;28;20029;-79
2022/10/09 05:20:58;;;;;;;6.05;3.80;;;;;;;18.08;60.22;101689.81;5055793;28;20083;-79
2022/10/09 05:23:24;;;;;;;4.65;3.72;;;;;;;18.03;60.35;101687.00;5068590;28;20067;-79
2022/10/09 05:25:57;;;;;;;4.97;3.72;;;;;;;18.02;60.40;101687.81;5060716;28;20026;-79
2022/10/09 05:28:23;;;;;;;5.47;3.97;;;;;;;18.05;60.37;101695.84;5055789;28;20090;-79
2022/10/09 05:30:49;;;;;;;7.03;3.90;;;;;;;18.07;60.11;101696.81;5043314;28;20448;-79
2022/10/09 05:33:15;;;;;;;5.13;3.70;;;;;;;18.06;60.33;101702.94;5042326;28;20036;-79
2022/10/09 05:35:40;;;;;;;5.03;3.72;;;;;;;18.17;60.02;101708.66;5033640;28;20099;-79
2022/10/09 05:38:06;;;;;;;6.35;3.85;;;;;;;18.11;59.91;101711.94;5043395;28;20129;-79
2022/10/09 05:40:31;;;;;;;5.40;3.67;;;;;;;18.02;60.28;101705.44;5050824;28;20107;-80
2022/10/09 05:42:57;;;;;;;6.88;3.70;;;;;;;18.14;60.05;101713.84;5046125;28;20419;-78
2022/10/09 05:45:22;;;;;;;4.70;3.80;;;;;;;18.08;59.97;101713.59;5051196;28;20020;-80
2022/10/09 05:47:48;;;;;;;4.43;3.38;;;;;;;18.18;59.71;101720.13;5048197;28;20029;-79
2022/10/09 05:50:13;;;;;;;5.45;3.45;;;;;;;18.05;60.08;101706.41;5048967;28;20024;-80
2022/10/09 05:52:39;;;;;;;7.50;3.58;;;;;;;18.09;60.10;101716.28;5041532;28;20044;-80
2022/10/09 05:55:05;;;;;;;5.15;3.50;;;;;;;18.06;60.42;101718.81;5059395;28;20428;-80
2022/10/09 05:57:31;;;;;;;4.97;3.38;;;;;;;17.97;59.85;101691.13;5054047;28;20505;-80
2022/10/09 05:59:57;;;;;;;5.78;3.60;;;;;;;18.10;60.12;101728.66;5052339;28;20029;-79
2022/10/09 06:02:22;;;;;;;5.53;3.72;;;;;;;18.09;59.84;101723.31;5050132;28;20025;-80
2022/10/09 06:04:48;;;;;;;4.40;3.60;;;;;;;18.05;59.97;101732.84;5050496;28;20021;-80
2022/10/09 06:07:14;;;;;;;4.63;3.40;;;;;;;18.03;60.24;101734.56;5051316;28;20053;-80
2022/10/09 06:09:39;;;;;;;4.25;3.45;;;;;;;18.01;60.55;101723.03;5044989;28;20013;-80
2022/10/09 06:12:05;;;;;;;4.70;3.60;;;;;;;18.11;59.88;101733.09;5051733;28;20043;-79
2022/10/09 06:14:30;;;;;;;6.18;3.80;;;;;;;18.05;60.25;101732.84;5048415;28;20033;-80
2022/10/09 06:16:57;;;;;;;4.55;3.22;;;;;;;18.09;60.05;101741.81;5040707;28;20033;-80
2022/10/09 06:19:23;;;;;;;5.78;3.97;;;;;;;17.97;60.31;101736.03;5055396;28;20064;-78
2022/10/09 06:21:49;;;;;;;4.82;3.40;;;;;;;18.06;60.30;101742.59;5044116;28;20051;-79
2022/10/09 06:24:24;;;;;;;5.60;3.50;;;;;;;18.04;60.26;101741.63;5036849;28;20475;-80
2022/10/09 06:26:50;;;;;;;4.47;3.35;;;;;;;18.02;60.41;101748.59;5052833;28;20051;-79
2022/10/09 06:29:15;;;;;;;4.63;3.55;;;;;;;18.08;60.22;101747.97;5047462;28;20530;-79
2022/10/09 06:31:41;;;;;;;5.28;3.38;;;;;;;18.07;60.41;101757.59;5042909;28;20033;-79
2022/10/09 06:34:08;;;;;;;4.80;3.45;;;;;;;17.97;60.60;101752.81;5045546;28;20453;-80
2022/10/09 06:36:35;;;;;;;6.60;3.53;;;;;;;18.17;60.24;101755.34;5047016;28;20136;-81
2022/10/09 06:39:01;;;;;;;;;;;;;;;18.26;58.06;101751.28;5050751;28;20028;-83
2022/10/09 06:41:28;;;;;;;216.98;15.05;;;;;;;18.09;58.73;101758.56;5052415;28;20310;-80
2022/10/09 06:43:55;;;;;;;94.22;9.70;;;;;;;18.09;58.95;101748.00;5044476;28;20032;-83
2022/10/09 06:46:23;;;;;;;64.18;8.05;;;;;;;18.19;57.79;101737.78;5043300;28;20032;-80
2022/10/09 06:48:49;;;;;;;38.60;6.00;;;;;;;18.06;58.10;101733.78;5049096;28;20017;-88
2022/10/09 06:51:18;;;;;;;52.47;6.90;;;;;;;18.16;58.65;101753.53;5028778;28;20055;-85
2022/10/09 06:53:49;;;;;;;28.88;6.32;;;;;;;18.22;57.43;101751.13;5051951;28;20585;-91
2022/10/09 06:56:16;;;;;;;70.03;9.13;;;;;;;18.16;58.03;101758.81;5045521;28;20063;-83
2022/10/09 06:58:42;;;;;;;20.88;5.10;;;;;;;18.30;57.21;101757.59;5046583;28;20085;-85
2022/10/09 07:01:16;;;;;;;23.52;5.43;;;;;;;18.20;58.30;101759.00;5044559;28;20041;-85
2022/10/09 07:03:44;;;;;;;23.17;5.18;;;;;;;17.98;58.67;101722.91;5039638;28;20411;-84
2022/10/09 07:06:10;;;;;;;27.60;5.20;;;;;;;18.22;58.72;101764.34;5019669;28;20490;-84
2022/10/09 07:08:36;;;;;;;26.38;5.30;;;;;;;18.10;58.99;101747.16;5048292;28;20538;-84
2022/10/09 07:11:09;;;;;;;16.80;4.55;;;;;;;18.16;59.24;101762.38;5031683;28;20079;-85
2022/10/09 07:13:37;;;;;;;17.23;4.93;;;;;;;18.11;59.54;101751.59;5033116;28;20033;-84
2022/10/09 07:16:03;;;;;;;18.30;4.65;;;;;;;18.12;59.49;101752.53;5042228;28;20040;-88
2022/10/09 07:18:31;;;;;;;11.30;4.93;;;;;;;18.11;59.65;101746.31;5043364;28;20041;-83
2022/10/09 07:20:59;;;;;;;39.42;5.72;;;;;;;18.03;59.71;101736.28;5048178;28;20124;-87
2022/10/09 07:23:28;;;;;;;50.65;6.65;;;;;;;17.95;59.71;101720.16;5052441;28;20029;-89
2022/10/09 07:25:53;;;;;;;29.58;7.85;;;;;;;17.95;59.40;101713.94;5060173;28;20430;-86
2022/10/09 07:28:19;;;;;;;38.58;9.77;;;;;;;18.04;59.79;101736.34;5043670;28;20051;-88
2022/10/09 07:30:47;;;;;;;56.13;10.27;;;;;;;17.97;59.95;101720.19;5047118;28;20075;-82
2022/10/09 07:33:14;;;;;;;24.85;6.30;;;;;;;18.05;59.76;101731.97;5018154;28;20029;-88
2022/10/09 07:35:39;;;;;;;23.25;5.97;;;;;;;18.15;59.82;101749.97;5018833;28;20040;-86
2022/10/09 07:38:05;;;;;;;19.67;5.53;;;;;;;18.13;59.90;101749.03;5036841;28;20114;-87
2022/10/09 07:40:34;;;;;;;16.70;5.75;;;;;;;18.00;60.06;101731.78;5045036;28;20029;-87
2022/10/09 07:43:00;;;;;;;15.15;4.82;;;;;;;18.13;60.28;101740.19;5033845;28;20029;-80
2022/10/09 07:45:25;;;;;;;14.80;4.90;;;;;;;18.19;60.21;101748.38;5046405;28;20028;-85
2022/10/09 07:47:51;;;;;;;17.58;4.95;;;;;;;18.04;60.08;101724.88;5040738;28;20034;-84
2022/10/09 07:50:16;;;;;;;75.95;8.60;;;;;;;18.17;60.31;101752.69;5044354;28;20070;-84
2022/10/09 07:52:42;;;;;;;97.43;9.32;;;;;;;18.19;60.21;101754.56;5046473;28;20033;-82
2022/10/09 07:55:08;;;;;;;37.38;9.52;;;;;;;17.98;60.33;101716.72;5037078;28;20029;-86
2022/10/09 07:57:33;;;;;;;34.90;16.00;;;;;;;18.00;60.42;101734.44;5052344;28;20116;-86
2022/10/09 07:59:59;;;;;;;15.43;5.75;;;;;;;18.07;60.90;101749.69;5058347;28;20067;-84
2022/10/09 08:02:25;;;;;;;16.58;5.80;;;;;;;18.09;60.68;101745.34;5045607;28;20032;-85
2022/10/09 08:04:50;;;;;;;14.70;5.10;;;;;;;18.05;61.26;101735.50;5056623;28;20029;-83
2022/10/09 08:07:16;;;;;;;14.57;5.45;;;;;;;17.72;60.92;101676.94;5040830;28;20025;-83
2022/10/09 08:09:41;;;;;;;22.90;5.43;;;;;;;18.10;60.78;101741.00;5041008;28;20111;-83
2022/10/09 08:12:07;;;;;;;16.77;5.15;;;;;;;18.21;60.40;101744.94;5038022;28;20112;-84
2022/10/09 08:14:45;;;;;;;13.85;5.30;;;;;;;17.96;60.73;101689.31;5038247;28;20388;-85
2022/10/09 08:17:19;;;;;;;17.05;5.10;;;;;;;17.85;60.78;101681.00;5049416;28;20533;-85
2022/10/09 08:19:48;;;;;;;12.65;5.05;;;;;;;18.00;60.83;101710.63;5035462;28;20029;-86
2022/10/09 08:22:18;;;;;;;12.13;4.90;;;;;;;17.90;61.01;101680.31;5038390;28;20029;-85
2022/10/09 08:24:56;;;;;;;;;;;;;;;;;;;;;
2022/10/09 08:27:22;;;;;;;12.50;4.85;;;;;;;18.33;60.85;101752.44;5039622;28;20489;-85
2022/10/09 08:29:48;;;;;;;12.75;4.90;;;;;;;18.25;61.32;101744.22;5048432;28;20107;-85
2022/10/09 08:32:13;;;;;;;11.75;4.80;;;;;;;17.78;61.06;101656.03;5041125;28;20108;-85
2022/10/09 08:34:39;;;;;;;9.45;4.88;;;;;;;18.27;60.94;101736.34;5046840;28;20051;-84
2022/10/09 08:37:05;;;;;;;12.00;5.05;;;;;;;18.19;62.04;101737.78;5047342;28;20080;-84
2022/10/09 08:39:31;;;;;;;11.88;4.63;;;;;;;17.93;61.85;101691.84;5057106;28;20392;-84
2022/10/09 08:42:00;;;;;;;12.70;4.93;;;;;;;17.88;62.31;101697.84;5056297;28;20414;-84
2022/10/09 08:44:58;;;;;;;11.48;4.43;;;;;;;18.19;62.00;101738.69;5037030;28;20112;-85
2022/10/09 08:47:31;;;;;;;;;;;;;;;18.29;61.68;101734.66;5036832;28;20067;-83
2022/10/09 08:50:04;;;;;;;9.30;4.50;;;;;;;18.29;61.63;101724.09;5039157;28;20012;-83
2022/10/09 08:53:07;;;;;;;7.13;4.47;;;;;;;18.32;61.46;101721.53;5042785;28;20016;-83
2022/10/09 08:55:44;;;;;;;12.68;4.88;;;;;;;18.33;61.89;101733.00;5038497;28;20055;-86
2022/10/09 08:58:15;;;;;;;15.10;4.90;;;;;;;18.28;61.68;101723.16;5040610;28;20025;-84
2022/10/09 09:01:10;;;;;;;11.30;4.70;;;;;;;18.17;62.26;101699.81;5041725;28;20030;-84
2022/10/09 09:03:38;;;;;;;11.95;5.03;;;;;;;18.26;62.51;101722.19;5024683;28;20041;-84
2022/10/09 09:06:39;;;;;;;8.88;4.85;;;;;;;18.14;62.30;101705.91;5038143;28;20022;-84
2022/10/09 09:09:24;;;;;;;8.80;4.75;;;;;;;18.28;61.86;101715.22;5016821;28;20049;-85
2022/10/09 09:12:04;;;;;;;9.52;4.55;;;;;;;18.35;62.39;101723.41;5051051;28;20021;-85
2022/10/09 09:14:35;;;;;;;12.05;5.50;;;;;;;18.32;62.14;101726.84;5045367;28;20101;-83
2022/10/09 09:17:18;;;;;;;9.27;4.57;;;;;;;18.33;62.18;101728.66;5041686;28;20091;-83
2022/10/09 09:19:53;;;;;;;7.22;4.88;;;;;;;18.38;62.17;101727.06;5042801;28;20040;-82
2022/10/09 09:22:19;;;;;;;9.40;4.65;;;;;;;18.22;62.83;101709.72;5045985;28;20029;-82
2022/10/09 09:24:50;;;;;;;12.68;4.80;;;;;;;18.33;62.38;101722.44;5049948;28;20379;-82
2022/10/09 09:27:18;;;;;;;10.55;4.70;;;;;;;18.23;62.86;101705.34;5045451;28;20032;-82
2022/10/09 09:29:58;;;;;;;9.48;4.90;;;;;;;18.27;62.98;101716.09;5048154;28;20103;-82
2022/10/09 09:32:26;;;;;;;12.27;4.88;;;;;;;18.20;62.74;101689.34;5044265;28;20064;-82
2022/10/09 09:35:02;;;;;;;8.07;4.57;;;;;;;18.30;62.89;101710.00;5039241;28;20034;-82
2022/10/09 09:37:27;;;;;;;7.13;4.57;;;;;;;18.27;62.99;101717.84;5033284;28;20195;-82
2022/10/09 09:39:53;;;;;;;8.93;4.82;;;;;;;18.19;62.89;101708.72;5042357;28;20151;-81
2022/10/09 09:42:20;;;;;;;9.75;5.13;;;;;;;18.25;63.15;101723.06;5044018;28;20029;-82
2022/10/09 09:44:58;;;;;;;8.20;4.75;;;;;;;18.30;63.20;101720.59;5038883;28;20025;-82
2022/10/09 09:47:33;;;;;;;8.23;5.07;;;;;;;18.24;63.18;101708.03;5022999;28;20037;-82
2022/10/09 09:50:00;;;;;;;7.78;4.95;;;;;;;18.29;63.23;101719.69;5033432;28;20405;-82
2022/10/09 09:52:29;;;;;;;8.60;4.70;;;;;;;18.29;63.15;101716.16;5049008;28;20379;-82
2022/10/09 09:54:58;;;;;;;11.13;4.82;;;;;;;18.26;63.10;101716.91;5051566;28;20033;-83
2022/10/09 09:57:31;;;;;;;10.48;4.97;;;;;;;18.29;63.35;101718.81;5043424;28;20021;-82
2022/10/09 10:00:07;;;;;;;8.80;4.72;;;;;;;18.31;63.20;101722.41;5054864;28;20089;-82
2022/10/09 10:02:33;;;;;;;8.27;5.00;;;;;;;18.36;63.12;101720.81;5052229;28;20402;-82
2022/10/09 10:05:00;;;;;;;7.45;4.65;;;;;;;18.42;63.08;101717.50;5035393;28;20483;-83
2022/10/09 10:07:30;;;;;;;9.15;4.85;;;;;;;18.21;63.18;101691.16;5046700;28;20029;-83
2022/10/09 10:10:21;;;;;;;8.10;4.72;;;;;;;18.36;63.64;101728.75;5042915;28;20033;-83
2022/10/09 10:12:50;;;;;;;7.68;4.65;;;;;;;18.34;63.66;101729.53;5040041;28;20028;-84
2022/10/09 10:15:20;;;;;;;7.00;4.68;;;;;;;18.40;63.46;101724.50;5045546;28;20044;-83
2022/10/09 10:17:47;;;;;;;9.50;5.40;;;;;;;18.15;63.48;101680.34;5038238;28;20025;-84
2022/10/09 10:20:16;;;;;;;7.80;4.82;;;;;;;18.40;63.51;101724.50;5040234;28;20086;-83
2022/10/09 10:22:49;;;;;;;8.88;5.00;;;;;;;18.40;63.65;101727.13;5046053;28;20047;-84
2022/10/09 10:25:26;;;;;;;6.60;4.60;;;;;;;18.17;63.44;101674.28;5022175;28;20029;-83
2022/10/09 10:28:03;;;;;;;8.55;4.57;;;;;;;18.36;63.77;101720.81;5032635;28;20029;-83
2022/10/09 10:30:30;;;;;;;11.50;4.65;;;;;;;18.51;63.35;101724.03;5041703;28;20529;-84
2022/10/09 10:33:07;;;;;;;7.47;5.00;;;;;;;18.26;63.82;101701.03;5031048;28;20025;-87
2022/10/09 10:35:37;;;;;;;7.22;5.05;;;;;;;18.25;63.65;101691.34;5028101;28;20091;-85
2022/10/09 10:38:13;;;;;;;6.93;4.63;;;;;;;18.40;63.64;101719.19;5034076;28;20030;-85
2022/10/09 10:41:12;;;;;;;10.80;5.40;;;;;;;18.27;63.61;101700.22;5048090;28;20500;-84
2022/10/09 10:44:01;;;;;;;7.53;4.88;;;;;;;18.22;63.85;101685.03;5045501;28;20017;-84
2022/10/09 10:46:47;;;;;;;8.80;4.45;;;;;;;18.36;63.94;101710.25;5043855;28;20627;-85
2022/10/09 10:49:18;;;;;;;10.60;5.30;;;;;;;18.31;63.54;101703.91;5030359;28;20037;-85
2022/10/09 10:52:02;;;;;;;5.97;4.65;;;;;;;18.40;63.96;101706.88;5033364;28;20025;-84
2022/10/09 10:54:30;;;;;;;10.73;4.90;;;;;;;18.40;63.96;101705.97;5042558;28;20050;-84
2022/10/09 10:57:07;;;;;;;9.60;4.70;;;;;;;18.35;64.03;101704.88;5037065;28;20037;-85
2022/10/09 10:59:35;;;;;;;7.53;4.53;;;;;;;18.38;63.92;101699.72;5039647;28;20428;-84
2022/10/09 11:02:13;;;;;;;7.20;4.63;;;;;;;18.42;63.88;101704.28;5043701;28;20116;-82
2022/10/09 11:05:09;;;;;;;7.07;5.20;;;;;;;18.22;63.83;101667.41;5038445;28;20061;-83
2022/10/09 11:07:48;;;;;;;8.57;4.95;;;;;;;18.42;63.95;101693.72;5039269;28;20049;-83
2022/10/09 11:10:26;;;;;;;5.88;4.60;;;;;;;18.39;63.93;101696.22;5042138;28;20160;-83
2022/10/09 11:12:59;;;;;;;7.78;4.80;;;;;;;18.39;63.84;101677.72;5030717;28;20040;-83
2022/10/09 11:15:24;;;;;;;6.80;4.88;;;;;;;18.46;63.94;101693.88;5044266;28;20024;-82
2022/10/09 11:18:16;;;;;;;6.78;4.60;;;;;;;18.44;63.79;101684.09;5047980;28;20120;-83
2022/10/09 11:20:41;;;;;;;7.90;4.65;;;;;;;18.52;63.70;101691.44;5047615;28;20044;-82
2022/10/09 11:23:20;;;;;;;9.75;5.25;;;;;;;18.48;63.82;101689.53;5052421;28;20030;-83
2022/10/09 11:26:02;;;;;;;6.93;4.82;;;;;;;18.42;63.89;101676.09;5030889;28;20051;-82
2022/10/09 11:28:36;;;;;;;5.90;4.80;;;;;;;18.48;63.83;101692.19;5035738;28;20410;-83
2022/10/09 11:31:15;;;;;;;5.55;4.60;;;;;;;18.53;63.72;101687.06;5046486;28;20024;-83
2022/10/09 11:33:47;;;;;;;7.93;4.95;;;;;;;18.37;63.74;101667.09;5053400;28;20025;-83
2022/10/09 11:36:17;;;;;;;7.43;4.95;;;;;;;18.47;63.74;101678.91;5048066;28;20065;-83
2022/10/09 11:38:48;;;;;;;6.65;4.70;;;;;;;18.52;63.74;101687.91;5042898;28;20049;-83